sensor_id;sensor_type;location;lat;lon;timestamp;P1;durP1;ratioP1;P2;durP2;ratioP2
63087;SDS011;49173;43.164;27.786;2023-02-14T00:01:20;51.15;;;27.27;;
63087;SDS011;49173;43.164;27.786;2023-02-14T00:03:46;47.22;;;28.13;;
63087;SDS011;49173;43.164;27.786;2023-02-14T00:06:14;53.28;;;29.60;;
63087;SDS011;49173;43.164;27.786;2023-02-14T00:08:40;52.00;;;31.45;;
63087;SDS011;49173;43.164;27.786;2023-02-14T00:11:09;60.17;;;36.92;;
63087;SDS011;49173;43.164;27.786;2023-02-14T00:13:36;77.53;;;42.75;;
63087;SDS011;49173;43.164;27.786;2023-02-14T00:16:02;70.22;;;39.65;;
63087;SDS011;49173;43.164;27.786;2023-02-14T00:18:28;54.15;;;31.88;;
63087;SDS011;49173;43.164;27.786;2023-02-14T00:21:12;41.10;;;25.38;;
63087;SDS011;49173;43.164;27.786;2023-02-14T00:23:37;43.00;;;25.52;;
63087;SDS011;49173;43.164;27.786;2023-02-14T00:26:03;44.10;;;25.20;;
63087;SDS011;49173;43.164;27.786;2023-02-14T00:28:29;45.15;;;27.42;;
63087;SDS011;49173;43.164;27.786;2023-02-14T00:30:57;44.80;;;26.45;;
63087;SDS011;49173;43.164;27.786;2023-02-14T00:33:26;45.50;;;27.15;;
63087;SDS011;49173;43.164;27.786;2023-02-14T00:35:51;41.55;;;25.80;;
63087;SDS011;49173;43.164;27.786;2023-02-14T00:38:17;45.63;;;26.92;;
63087;SDS011;49173;43.164;27.786;2023-02-14T00:40:43;45.40;;;26.60;;
63087;SDS011;49173;43.164;27.786;2023-02-14T00:43:09;43.30;;;24.05;;
63087;SDS011;49173;43.164;27.786;2023-02-14T00:45:34;45.65;;;25.23;;
63087;SDS011;49173;43.164;27.786;2023-02-14T00:48:01;45.33;;;25.13;;
63087;SDS011;49173;43.164;27.786;2023-02-14T00:50:27;47.35;;;26.98;;
63087;SDS011;49173;43.164;27.786;2023-02-14T00:52:53;43.17;;;26.85;;
63087;SDS011;49173;43.164;27.786;2023-02-14T00:55:18;42.72;;;25.83;;
63087;SDS011;49173;43.164;27.786;2023-02-14T00:57:44;45.95;;;27.92;;
63087;SDS011;49173;43.164;27.786;2023-02-14T01:00:10;46.03;;;28.30;;
63087;SDS011;49173;43.164;27.786;2023-02-14T01:02:37;48.80;;;27.05;;
63087;SDS011;49173;43.164;27.786;2023-02-14T01:05:03;53.90;;;29.45;;
63087;SDS011;49173;43.164;27.786;2023-02-14T01:07:29;49.83;;;30.58;;
63087;SDS011;49173;43.164;27.786;2023-02-14T01:09:55;46.33;;;28.92;;
63087;SDS011;49173;43.164;27.786;2023-02-14T01:12:21;46.30;;;27.38;;
63087;SDS011;49173;43.164;27.786;2023-02-14T01:14:47;46.63;;;27.83;;
63087;SDS011;49173;43.164;27.786;2023-02-14T01:17:12;45.85;;;26.35;;
63087;SDS011;49173;43.164;27.786;2023-02-14T01:19:38;45.67;;;26.65;;
63087;SDS011;49173;43.164;27.786;2023-02-14T01:22:07;46.85;;;25.65;;
63087;SDS011;49173;43.164;27.786;2023-02-14T01:24:32;44.38;;;26.35;;
63087;SDS011;49173;43.164;27.786;2023-02-14T01:26:59;45.00;;;25.90;;
63087;SDS011;49173;43.164;27.786;2023-02-14T01:29:26;56.70;;;30.38;;
63087;SDS011;49173;43.164;27.786;2023-02-14T01:31:52;60.17;;;33.03;;
63087;SDS011;49173;43.164;27.786;2023-02-14T01:34:18;60.33;;;33.65;;
63087;SDS011;49173;43.164;27.786;2023-02-14T01:36:43;56.10;;;31.60;;
63087;SDS011;49173;43.164;27.786;2023-02-14T01:39:10;56.53;;;32.20;;
63087;SDS011;49173;43.164;27.786;2023-02-14T01:41:38;60.67;;;32.70;;
63087;SDS011;49173;43.164;27.786;2023-02-14T01:46:51;51.30;;;28.95;;
63087;SDS011;49173;43.164;27.786;2023-02-14T01:49:22;47.03;;;29.05;;
63087;SDS011;49173;43.164;27.786;2023-02-14T01:51:59;57.58;;;32.28;;
63087;SDS011;49173;43.164;27.786;2023-02-14T01:54:31;48.47;;;29.52;;
63087;SDS011;49173;43.164;27.786;2023-02-14T01:57:03;50.08;;;29.33;;
63087;SDS011;49173;43.164;27.786;2023-02-14T01:59:38;50.00;;;27.92;;
63087;SDS011;49173;43.164;27.786;2023-02-14T02:02:07;49.88;;;26.92;;
63087;SDS011;49173;43.164;27.786;2023-02-14T02:04:36;46.65;;;27.20;;
63087;SDS011;49173;43.164;27.786;2023-02-14T02:09:34;42.47;;;23.92;;
63087;SDS011;49173;43.164;27.786;2023-02-14T02:12:04;45.22;;;27.17;;
63087;SDS011;49173;43.164;27.786;2023-02-14T02:14:30;42.67;;;25.95;;
63087;SDS011;49173;43.164;27.786;2023-02-14T02:17:03;54.70;;;31.63;;
63087;SDS011;49173;43.164;27.786;2023-02-14T02:20:57;55.65;;;29.98;;
63087;SDS011;49173;43.164;27.786;2023-02-14T02:47:41;42.35;;;23.63;;
63087;SDS011;49173;43.164;27.786;2023-02-14T02:53:26;44.47;;;24.60;;
63087;SDS011;49173;43.164;27.786;2023-02-14T02:59:18;45.65;;;25.15;;
63087;SDS011;49173;43.164;27.786;2023-02-14T03:02:08;42.80;;;24.92;;
63087;SDS011;49173;43.164;27.786;2023-02-14T03:04:43;39.63;;;24.05;;
63087;SDS011;49173;43.164;27.786;2023-02-14T03:07:19;42.60;;;25.02;;
63087;SDS011;49173;43.164;27.786;2023-02-14T03:21:01;45.08;;;26.25;;
63087;SDS011;49173;43.164;27.786;2023-02-14T03:23:56;47.63;;;26.13;;
63087;SDS011;49173;43.164;27.786;2023-02-14T03:26:51;47.40;;;26.25;;
63087;SDS011;49173;43.164;27.786;2023-02-14T03:32:41;45.15;;;24.35;;
63087;SDS011;49173;43.164;27.786;2023-02-14T03:35:32;40.85;;;24.85;;
63087;SDS011;49173;43.164;27.786;2023-02-14T03:38:20;38.92;;;22.48;;
63087;SDS011;49173;43.164;27.786;2023-02-14T03:41:03;53.42;;;29.20;;
63087;SDS011;49173;43.164;27.786;2023-02-14T03:43:38;52.72;;;29.00;;
63087;SDS011;49173;43.164;27.786;2023-02-14T03:46:10;43.90;;;26.40;;
63087;SDS011;49173;43.164;27.786;2023-02-14T03:48:41;45.45;;;27.80;;
63087;SDS011;49173;43.164;27.786;2023-02-14T03:51:10;47.15;;;28.30;;
63087;SDS011;49173;43.164;27.786;2023-02-14T03:53:38;46.35;;;27.45;;
63087;SDS011;49173;43.164;27.786;2023-02-14T03:56:13;49.88;;;27.60;;
63087;SDS011;49173;43.164;27.786;2023-02-14T03:58:51;50.17;;;27.65;;
63087;SDS011;49173;43.164;27.786;2023-02-14T04:01:25;47.00;;;26.90;;
63087;SDS011;49173;43.164;27.786;2023-02-14T04:03:59;42.50;;;25.88;;
63087;SDS011;49173;43.164;27.786;2023-02-14T04:06:28;42.65;;;25.30;;
63087;SDS011;49173;43.164;27.786;2023-02-14T04:08:54;44.88;;;27.33;;
63087;SDS011;49173;43.164;27.786;2023-02-14T04:11:20;45.55;;;27.75;;
63087;SDS011;49173;43.164;27.786;2023-02-14T04:13:46;42.55;;;26.77;;
63087;SDS011;49173;43.164;27.786;2023-02-14T04:16:11;41.47;;;26.15;;
63087;SDS011;49173;43.164;27.786;2023-02-14T04:18:37;43.70;;;26.05;;
63087;SDS011;49173;43.164;27.786;2023-02-14T04:21:21;52.60;;;27.27;;
63087;SDS011;49173;43.164;27.786;2023-02-14T04:23:47;50.00;;;29.80;;
63087;SDS011;49173;43.164;27.786;2023-02-14T04:26:13;56.47;;;32.55;;
63087;SDS011;49173;43.164;27.786;2023-02-14T04:28:39;70.30;;;34.17;;
63087;SDS011;49173;43.164;27.786;2023-02-14T04:31:05;53.50;;;30.88;;
63087;SDS011;49173;43.164;27.786;2023-02-14T04:33:31;54.78;;;29.58;;
63087;SDS011;49173;43.164;27.786;2023-02-14T04:35:57;50.92;;;27.15;;
63087;SDS011;49173;43.164;27.786;2023-02-14T04:38:24;42.63;;;26.15;;
63087;SDS011;49173;43.164;27.786;2023-02-14T04:40:50;43.38;;;24.58;;
63087;SDS011;49173;43.164;27.786;2023-02-14T04:43:17;49.05;;;25.83;;
63087;SDS011;49173;43.164;27.786;2023-02-14T04:45:43;46.53;;;25.92;;
63087;SDS011;49173;43.164;27.786;2023-02-14T04:48:09;43.88;;;25.77;;
63087;SDS011;49173;43.164;27.786;2023-02-14T04:50:35;48.00;;;26.85;;
63087;SDS011;49173;43.164;27.786;2023-02-14T04:53:01;54.47;;;29.95;;
63087;SDS011;49173;43.164;27.786;2023-02-14T04:55:26;48.97;;;28.40;;
63087;SDS011;49173;43.164;27.786;2023-02-14T04:57:52;51.00;;;28.92;;
63087;SDS011;49173;43.164;27.786;2023-02-14T05:00:18;54.13;;;30.73;;
63087;SDS011;49173;43.164;27.786;2023-02-14T05:02:44;51.80;;;30.45;;
63087;SDS011;49173;43.164;27.786;2023-02-14T05:05:10;58.28;;;29.70;;
63087;SDS011;49173;43.164;27.786;2023-02-14T05:07:36;57.85;;;33.95;;
63087;SDS011;49173;43.164;27.786;2023-02-14T05:10:02;60.92;;;36.30;;
63087;SDS011;49173;43.164;27.786;2023-02-14T05:12:30;57.88;;;33.22;;
63087;SDS011;49173;43.164;27.786;2023-02-14T05:14:56;54.83;;;31.73;;
63087;SDS011;49173;43.164;27.786;2023-02-14T05:17:22;60.45;;;32.15;;
63087;SDS011;49173;43.164;27.786;2023-02-14T05:19:48;55.30;;;33.20;;
63087;SDS011;49173;43.164;27.786;2023-02-14T05:22:14;57.58;;;32.83;;
63087;SDS011;49173;43.164;27.786;2023-02-14T05:24:40;57.80;;;32.17;;
63087;SDS011;49173;43.164;27.786;2023-02-14T05:27:05;57.15;;;34.35;;
63087;SDS011;49173;43.164;27.786;2023-02-14T05:29:31;54.65;;;31.88;;
63087;SDS011;49173;43.164;27.786;2023-02-14T05:31:57;55.30;;;32.13;;
63087;SDS011;49173;43.164;27.786;2023-02-14T05:34:23;50.03;;;30.70;;
63087;SDS011;49173;43.164;27.786;2023-02-14T05:36:49;60.22;;;31.60;;
63087;SDS011;49173;43.164;27.786;2023-02-14T05:39:15;54.08;;;28.77;;
63087;SDS011;49173;43.164;27.786;2023-02-14T05:41:41;53.13;;;29.13;;
63087;SDS011;49173;43.164;27.786;2023-02-14T05:44:07;47.28;;;26.05;;
63087;SDS011;49173;43.164;27.786;2023-02-14T05:46:32;51.78;;;27.65;;
63087;SDS011;49173;43.164;27.786;2023-02-14T05:48:58;46.47;;;28.38;;
63087;SDS011;49173;43.164;27.786;2023-02-14T05:51:24;47.80;;;29.52;;
63087;SDS011;49173;43.164;27.786;2023-02-14T05:53:50;52.40;;;30.50;;
63087;SDS011;49173;43.164;27.786;2023-02-14T05:56:16;49.60;;;28.67;;
63087;SDS011;49173;43.164;27.786;2023-02-14T05:58:42;53.22;;;29.58;;
63087;SDS011;49173;43.164;27.786;2023-02-14T06:01:08;47.30;;;26.77;;
63087;SDS011;49173;43.164;27.786;2023-02-14T06:03:34;46.38;;;27.05;;
63087;SDS011;49173;43.164;27.786;2023-02-14T06:06:00;46.67;;;25.90;;
63087;SDS011;49173;43.164;27.786;2023-02-14T06:08:25;40.45;;;26.00;;
63087;SDS011;49173;43.164;27.786;2023-02-14T06:10:51;48.63;;;26.73;;
63087;SDS011;49173;43.164;27.786;2023-02-14T06:13:17;44.97;;;25.58;;
63087;SDS011;49173;43.164;27.786;2023-02-14T06:15:43;46.58;;;24.90;;
63087;SDS011;49173;43.164;27.786;2023-02-14T06:18:09;43.28;;;25.20;;
63087;SDS011;49173;43.164;27.786;2023-02-14T06:20:35;53.80;;;29.10;;
63087;SDS011;49173;43.164;27.786;2023-02-14T06:23:01;71.20;;;35.47;;
63087;SDS011;49173;43.164;27.786;2023-02-14T06:25:27;52.50;;;31.10;;
63087;SDS011;49173;43.164;27.786;2023-02-14T06:27:56;57.88;;;33.50;;
63087;SDS011;49173;43.164;27.786;2023-02-14T06:30:23;55.45;;;31.10;;
63087;SDS011;49173;43.164;27.786;2023-02-14T06:32:50;70.68;;;34.50;;
63087;SDS011;49173;43.164;27.786;2023-02-14T06:35:16;53.83;;;29.98;;
63087;SDS011;49173;43.164;27.786;2023-02-14T06:37:42;54.50;;;29.67;;
63087;SDS011;49173;43.164;27.786;2023-02-14T06:40:10;42.67;;;26.25;;
63087;SDS011;49173;43.164;27.786;2023-02-14T06:42:37;38.33;;;23.45;;
63087;SDS011;49173;43.164;27.786;2023-02-14T06:45:03;38.97;;;23.38;;
63087;SDS011;49173;43.164;27.786;2023-02-14T06:47:30;44.25;;;24.25;;
63087;SDS011;49173;43.164;27.786;2023-02-14T06:49:56;38.78;;;24.35;;
63087;SDS011;49173;43.164;27.786;2023-02-14T06:52:24;47.88;;;25.52;;
63087;SDS011;49173;43.164;27.786;2023-02-14T06:54:50;45.10;;;25.80;;
63087;SDS011;49173;43.164;27.786;2023-02-14T06:57:16;41.00;;;24.00;;
63087;SDS011;49173;43.164;27.786;2023-02-14T06:59:42;38.97;;;23.67;;
63087;SDS011;49173;43.164;27.786;2023-02-14T07:02:09;38.53;;;23.40;;
63087;SDS011;49173;43.164;27.786;2023-02-14T07:04:35;40.38;;;24.75;;
63087;SDS011;49173;43.164;27.786;2023-02-14T07:07:01;42.60;;;27.15;;
63087;SDS011;49173;43.164;27.786;2023-02-14T07:09:28;42.88;;;27.15;;
63087;SDS011;49173;43.164;27.786;2023-02-14T07:11:54;43.30;;;27.25;;
63087;SDS011;49173;43.164;27.786;2023-02-14T07:14:20;45.95;;;28.55;;
63087;SDS011;49173;43.164;27.786;2023-02-14T07:16:45;45.15;;;27.83;;
63087;SDS011;49173;43.164;27.786;2023-02-14T07:19:11;47.03;;;28.65;;
63087;SDS011;49173;43.164;27.786;2023-02-14T07:21:37;48.78;;;29.40;;
63087;SDS011;49173;43.164;27.786;2023-02-14T07:24:03;46.35;;;26.88;;
63087;SDS011;49173;43.164;27.786;2023-02-14T07:26:29;40.88;;;25.85;;
63087;SDS011;49173;43.164;27.786;2023-02-14T07:28:55;42.22;;;25.83;;
63087;SDS011;49173;43.164;27.786;2023-02-14T07:31:20;33.03;;;21.52;;
63087;SDS011;49173;43.164;27.786;2023-02-14T07:33:48;37.15;;;23.02;;
63087;SDS011;49173;43.164;27.786;2023-02-14T07:36:15;37.15;;;21.50;;
63087;SDS011;49173;43.164;27.786;2023-02-14T07:38:40;36.28;;;22.15;;
63087;SDS011;49173;43.164;27.786;2023-02-14T07:41:06;33.85;;;20.95;;
63087;SDS011;49173;43.164;27.786;2023-02-14T07:43:32;31.92;;;19.83;;
63087;SDS011;49173;43.164;27.786;2023-02-14T07:46:01;31.77;;;19.83;;
63087;SDS011;49173;43.164;27.786;2023-02-14T07:48:28;33.17;;;20.58;;
63087;SDS011;49173;43.164;27.786;2023-02-14T07:50:54;32.20;;;20.20;;
63087;SDS011;49173;43.164;27.786;2023-02-14T07:53:23;31.17;;;19.15;;
63087;SDS011;49173;43.164;27.786;2023-02-14T07:55:50;32.05;;;19.23;;
63087;SDS011;49173;43.164;27.786;2023-02-14T07:58:16;32.55;;;19.65;;
63087;SDS011;49173;43.164;27.786;2023-02-14T08:00:43;33.20;;;19.13;;
63087;SDS011;49173;43.164;27.786;2023-02-14T08:03:11;33.60;;;21.60;;
63087;SDS011;49173;43.164;27.786;2023-02-14T08:05:37;33.45;;;21.08;;
63087;SDS011;49173;43.164;27.786;2023-02-14T08:08:03;39.25;;;20.85;;
63087;SDS011;49173;43.164;27.786;2023-02-14T08:10:29;42.10;;;21.92;;
63087;SDS011;49173;43.164;27.786;2023-02-14T08:12:55;37.17;;;21.63;;
63087;SDS011;49173;43.164;27.786;2023-02-14T08:15:28;31.60;;;20.00;;
63087;SDS011;49173;43.164;27.786;2023-02-14T08:18:14;36.97;;;21.30;;
63087;SDS011;49173;43.164;27.786;2023-02-14T08:20:42;34.22;;;21.10;;
63087;SDS011;49173;43.164;27.786;2023-02-14T08:23:10;33.78;;;21.05;;
63087;SDS011;49173;43.164;27.786;2023-02-14T08:25:36;33.55;;;19.30;;
63087;SDS011;49173;43.164;27.786;2023-02-14T08:28:03;31.58;;;19.02;;
63087;SDS011;49173;43.164;27.786;2023-02-14T08:30:30;29.45;;;18.75;;
63087;SDS011;49173;43.164;27.786;2023-02-14T08:32:56;30.77;;;19.83;;
63087;SDS011;49173;43.164;27.786;2023-02-14T08:35:21;30.23;;;19.92;;
63087;SDS011;49173;43.164;27.786;2023-02-14T08:37:47;33.53;;;19.45;;
63087;SDS011;49173;43.164;27.786;2023-02-14T08:40:14;34.17;;;20.17;;
63087;SDS011;49173;43.164;27.786;2023-02-14T08:42:41;28.00;;;17.63;;
63087;SDS011;49173;43.164;27.786;2023-02-14T08:45:07;38.97;;;19.67;;
63087;SDS011;49173;43.164;27.786;2023-02-14T08:47:33;31.70;;;18.92;;
63087;SDS011;49173;43.164;27.786;2023-02-14T08:50:00;31.88;;;18.30;;
63087;SDS011;49173;43.164;27.786;2023-02-14T08:52:27;30.38;;;18.75;;
63087;SDS011;49173;43.164;27.786;2023-02-14T08:54:52;32.67;;;19.90;;
63087;SDS011;49173;43.164;27.786;2023-02-14T08:57:18;32.00;;;19.70;;
63087;SDS011;49173;43.164;27.786;2023-02-14T08:59:44;35.30;;;21.08;;
63087;SDS011;49173;43.164;27.786;2023-02-14T09:02:12;34.50;;;19.45;;
63087;SDS011;49173;43.164;27.786;2023-02-14T09:04:40;35.92;;;19.75;;
63087;SDS011;49173;43.164;27.786;2023-02-14T09:07:06;32.03;;;19.60;;
63087;SDS011;49173;43.164;27.786;2023-02-14T09:09:32;30.30;;;19.65;;
63087;SDS011;49173;43.164;27.786;2023-02-14T09:12:01;33.42;;;18.98;;
63087;SDS011;49173;43.164;27.786;2023-02-14T09:14:28;32.55;;;18.92;;
63087;SDS011;49173;43.164;27.786;2023-02-14T09:16:54;31.80;;;20.98;;
63087;SDS011;49173;43.164;27.786;2023-02-14T09:19:20;33.30;;;19.55;;
63087;SDS011;49173;43.164;27.786;2023-02-14T09:21:46;34.58;;;20.83;;
63087;SDS011;49173;43.164;27.786;2023-02-14T09:24:11;30.95;;;19.70;;
63087;SDS011;49173;43.164;27.786;2023-02-14T09:26:37;38.20;;;21.35;;
63087;SDS011;49173;43.164;27.786;2023-02-14T09:29:05;29.65;;;20.83;;
63087;SDS011;49173;43.164;27.786;2023-02-14T09:31:31;30.50;;;20.42;;
63087;SDS011;49173;43.164;27.786;2023-02-14T09:33:56;33.42;;;21.40;;
63087;SDS011;49173;43.164;27.786;2023-02-14T09:36:22;28.77;;;20.17;;
63087;SDS011;49173;43.164;27.786;2023-02-14T09:39:06;27.92;;;18.73;;
63087;SDS011;49173;43.164;27.786;2023-02-14T09:41:42;28.38;;;18.20;;
63087;SDS011;49173;43.164;27.786;2023-02-14T09:44:31;29.35;;;17.50;;
63087;SDS011;49173;43.164;27.786;2023-02-14T09:47:08;26.52;;;17.25;;
63087;SDS011;49173;43.164;27.786;2023-02-14T09:49:43;27.20;;;16.67;;
63087;SDS011;49173;43.164;27.786;2023-02-14T09:52:11;23.95;;;16.60;;
63087;SDS011;49173;43.164;27.786;2023-02-14T09:54:41;29.52;;;18.33;;
63087;SDS011;49173;43.164;27.786;2023-02-14T10:00:12;25.38;;;15.82;;
63087;SDS011;49173;43.164;27.786;2023-02-14T10:03:11;27.73;;;16.63;;
63087;SDS011;49173;43.164;27.786;2023-02-14T10:09:01;25.33;;;15.93;;
63087;SDS011;49173;43.164;27.786;2023-02-14T10:11:31;26.65;;;15.90;;
63087;SDS011;49173;43.164;27.786;2023-02-14T10:14:00;24.40;;;16.20;;
63087;SDS011;49173;43.164;27.786;2023-02-14T10:19:20;26.65;;;16.70;;
63087;SDS011;49173;43.164;27.786;2023-02-14T10:24:17;24.77;;;15.73;;
63087;SDS011;49173;43.164;27.786;2023-02-14T10:26:50;28.88;;;16.38;;
63087;SDS011;49173;43.164;27.786;2023-02-14T10:29:22;26.67;;;15.48;;
63087;SDS011;49173;43.164;27.786;2023-02-14T10:34:43;21.05;;;14.48;;
63087;SDS011;49173;43.164;27.786;2023-02-14T10:51:19;16.85;;;10.57;;
63087;SDS011;49173;43.164;27.786;2023-02-14T10:56:40;15.00;;;8.25;;
63087;SDS011;49173;43.164;27.786;2023-02-14T10:59:19;13.48;;;9.07;;
63087;SDS011;49173;43.164;27.786;2023-02-14T11:01:50;16.15;;;9.68;;
63087;SDS011;49173;43.164;27.786;2023-02-14T11:04:20;13.93;;;9.18;;
63087;SDS011;49173;43.164;27.786;2023-02-14T11:06:48;14.77;;;8.90;;
63087;SDS011;49173;43.164;27.786;2023-02-14T11:09:18;13.48;;;8.52;;
63087;SDS011;49173;43.164;27.786;2023-02-14T11:11:49;13.43;;;8.60;;
63087;SDS011;49173;43.164;27.786;2023-02-14T11:14:29;15.45;;;9.80;;
63087;SDS011;49173;43.164;27.786;2023-02-14T11:20:20;11.32;;;7.38;;
63087;SDS011;49173;43.164;27.786;2023-02-14T11:22:51;11.45;;;7.20;;
63087;SDS011;49173;43.164;27.786;2023-02-14T11:25:18;12.05;;;7.93;;
63087;SDS011;49173;43.164;27.786;2023-02-14T11:27:57;12.60;;;8.43;;
63087;SDS011;49173;43.164;27.786;2023-02-14T11:30:34;12.38;;;8.10;;
63087;SDS011;49173;43.164;27.786;2023-02-14T11:33:06;12.45;;;8.10;;
63087;SDS011;49173;43.164;27.786;2023-02-14T11:35:38;11.80;;;8.07;;
63087;SDS011;49173;43.164;27.786;2023-02-14T11:38:08;15.30;;;8.45;;
63087;SDS011;49173;43.164;27.786;2023-02-14T11:41:10;10.93;;;7.45;;
63087;SDS011;49173;43.164;27.786;2023-02-14T11:43:40;15.20;;;8.80;;
63087;SDS011;49173;43.164;27.786;2023-02-14T11:46:26;12.63;;;8.60;;
63087;SDS011;49173;43.164;27.786;2023-02-14T11:48:55;12.23;;;7.38;;
63087;SDS011;49173;43.164;27.786;2023-02-14T11:51:35;13.15;;;8.93;;
63087;SDS011;49173;43.164;27.786;2023-02-14T11:54:22;13.52;;;8.80;;
63087;SDS011;49173;43.164;27.786;2023-02-14T11:56:52;13.75;;;8.63;;
63087;SDS011;49173;43.164;27.786;2023-02-14T11:59:31;17.27;;;10.05;;
63087;SDS011;49173;43.164;27.786;2023-02-14T12:02:02;12.43;;;8.40;;
63087;SDS011;49173;43.164;27.786;2023-02-14T12:04:48;13.30;;;8.43;;
63087;SDS011;49173;43.164;27.786;2023-02-14T12:07:27;12.10;;;8.20;;
63087;SDS011;49173;43.164;27.786;2023-02-14T12:10:06;11.15;;;7.18;;
63087;SDS011;49173;43.164;27.786;2023-02-14T12:12:35;13.70;;;7.20;;
63087;SDS011;49173;43.164;27.786;2023-02-14T12:15:32;13.65;;;8.02;;
63087;SDS011;49173;43.164;27.786;2023-02-14T12:18:15;11.85;;;7.20;;
63087;SDS011;49173;43.164;27.786;2023-02-14T12:29:09;11.05;;;6.57;;
63087;SDS011;49173;43.164;27.786;2023-02-14T12:31:39;11.90;;;8.00;;
63087;SDS011;49173;43.164;27.786;2023-02-14T12:34:09;13.35;;;7.45;;
63087;SDS011;49173;43.164;27.786;2023-02-14T12:36:59;13.50;;;7.55;;
63087;SDS011;49173;43.164;27.786;2023-02-14T12:39:37;10.95;;;7.47;;
63087;SDS011;49173;43.164;27.786;2023-02-14T12:42:24;11.65;;;6.30;;
63087;SDS011;49173;43.164;27.786;2023-02-14T12:48:32;7.97;;;5.30;;
63087;SDS011;49173;43.164;27.786;2023-02-14T12:51:29;9.70;;;5.95;;
63087;SDS011;49173;43.164;27.786;2023-02-14T12:57:05;11.40;;;6.73;;
63087;SDS011;49173;43.164;27.786;2023-02-14T13:00:10;11.20;;;6.13;;
63087;SDS011;49173;43.164;27.786;2023-02-14T13:05:49;11.38;;;6.53;;
63087;SDS011;49173;43.164;27.786;2023-02-14T13:25:48;11.45;;;6.45;;
63087;SDS011;49173;43.164;27.786;2023-02-14T13:28:23;14.20;;;7.88;;
63087;SDS011;49173;43.164;27.786;2023-02-14T13:30:53;11.48;;;7.93;;
63087;SDS011;49173;43.164;27.786;2023-02-14T13:33:28;11.68;;;7.10;;
63087;SDS011;49173;43.164;27.786;2023-02-14T13:36:06;11.52;;;7.53;;
63087;SDS011;49173;43.164;27.786;2023-02-14T13:38:48;14.88;;;7.97;;
63087;SDS011;49173;43.164;27.786;2023-02-14T13:41:17;12.98;;;7.75;;
63087;SDS011;49173;43.164;27.786;2023-02-14T13:43:58;11.60;;;7.18;;
63087;SDS011;49173;43.164;27.786;2023-02-14T13:49:46;11.10;;;7.43;;
63087;SDS011;49173;43.164;27.786;2023-02-14T13:52:01;11.15;;;7.78;;
63087;SDS011;49173;43.164;27.786;2023-02-14T13:57:23;9.20;;;6.28;;
63087;SDS011;49173;43.164;27.786;2023-02-14T14:10:55;11.60;;;6.00;;
63087;SDS011;49173;43.164;27.786;2023-02-14T14:21:29;9.98;;;6.22;;
63087;SDS011;49173;43.164;27.786;2023-02-14T14:26:58;9.90;;;5.68;;
63087;SDS011;49173;43.164;27.786;2023-02-14T14:29:35;8.40;;;6.10;;
63087;SDS011;49173;43.164;27.786;2023-02-14T14:32:16;9.43;;;5.75;;
63087;SDS011;49173;43.164;27.786;2023-02-14T14:43:05;8.52;;;6.05;;
63087;SDS011;49173;43.164;27.786;2023-02-14T14:45:39;9.05;;;5.68;;
63087;SDS011;49173;43.164;27.786;2023-02-14T14:48:08;7.95;;;5.93;;
63087;SDS011;49173;43.164;27.786;2023-02-14T14:50:42;9.48;;;6.15;;
63087;SDS011;49173;43.164;27.786;2023-02-14T14:58:50;8.93;;;5.28;;
63087;SDS011;49173;43.164;27.786;2023-02-14T15:04:23;12.73;;;6.80;;
63087;SDS011;49173;43.164;27.786;2023-02-14T15:06:56;12.05;;;6.38;;
63087;SDS011;49173;43.164;27.786;2023-02-14T15:09:47;12.05;;;6.70;;
63087;SDS011;49173;43.164;27.786;2023-02-14T15:12:18;9.98;;;6.78;;
63087;SDS011;49173;43.164;27.786;2023-02-14T15:15:11;14.60;;;8.63;;
63087;SDS011;49173;43.164;27.786;2023-02-14T15:17:43;14.30;;;9.32;;
63087;SDS011;49173;43.164;27.786;2023-02-14T15:20:20;15.25;;;9.90;;
63087;SDS011;49173;43.164;27.786;2023-02-14T15:22:53;13.45;;;8.23;;
63087;SDS011;49173;43.164;27.786;2023-02-14T15:25:31;12.25;;;6.95;;
63087;SDS011;49173;43.164;27.786;2023-02-14T15:28:02;13.38;;;6.43;;
63087;SDS011;49173;43.164;27.786;2023-02-14T15:30:30;10.40;;;7.20;;
63087;SDS011;49173;43.164;27.786;2023-02-14T15:33:04;11.25;;;6.88;;
63087;SDS011;49173;43.164;27.786;2023-02-14T15:35:35;11.93;;;6.70;;
63087;SDS011;49173;43.164;27.786;2023-02-14T15:38:09;11.35;;;7.40;;
63087;SDS011;49173;43.164;27.786;2023-02-14T15:40:38;11.45;;;7.20;;
63087;SDS011;49173;43.164;27.786;2023-02-14T15:45:50;15.82;;;9.00;;
63087;SDS011;49173;43.164;27.786;2023-02-14T15:48:23;16.92;;;9.43;;
63087;SDS011;49173;43.164;27.786;2023-02-14T15:51:03;15.10;;;8.93;;
63087;SDS011;49173;43.164;27.786;2023-02-14T15:53:43;13.15;;;8.70;;
63087;SDS011;49173;43.164;27.786;2023-02-14T15:56:20;16.48;;;10.68;;
63087;SDS011;49173;43.164;27.786;2023-02-14T15:59:24;17.50;;;10.52;;
63087;SDS011;49173;43.164;27.786;2023-02-14T16:04:49;15.95;;;10.27;;
63087;SDS011;49173;43.164;27.786;2023-02-14T16:07:23;25.13;;;13.38;;
63087;SDS011;49173;43.164;27.786;2023-02-14T16:12:54;41.78;;;20.95;;
63087;SDS011;49173;43.164;27.786;2023-02-14T16:15:31;38.58;;;21.10;;
63087;SDS011;49173;43.164;27.786;2023-02-14T16:18:00;25.38;;;16.25;;
63087;SDS011;49173;43.164;27.786;2023-02-14T16:26:09;25.63;;;17.50;;
63087;SDS011;49173;43.164;27.786;2023-02-14T16:28:36;31.80;;;15.63;;
63087;SDS011;49173;43.164;27.786;2023-02-14T16:31:04;22.88;;;13.98;;
63087;SDS011;49173;43.164;27.786;2023-02-14T16:33:39;26.48;;;14.65;;
63087;SDS011;49173;43.164;27.786;2023-02-14T16:36:15;32.50;;;16.73;;
63087;SDS011;49173;43.164;27.786;2023-02-14T16:38:46;31.95;;;16.83;;
63087;SDS011;49173;43.164;27.786;2023-02-14T16:41:25;27.27;;;16.92;;
63087;SDS011;49173;43.164;27.786;2023-02-14T16:43:56;31.15;;;17.92;;
63087;SDS011;49173;43.164;27.786;2023-02-14T16:46:24;26.98;;;17.00;;
63087;SDS011;49173;43.164;27.786;2023-02-14T16:48:53;26.08;;;16.38;;
63087;SDS011;49173;43.164;27.786;2023-02-14T16:51:25;37.83;;;22.10;;
63087;SDS011;49173;43.164;27.786;2023-02-14T16:54:00;41.15;;;24.30;;
63087;SDS011;49173;43.164;27.786;2023-02-14T16:56:45;24.42;;;15.48;;
63087;SDS011;49173;43.164;27.786;2023-02-14T16:59:17;17.08;;;11.40;;
63087;SDS011;49173;43.164;27.786;2023-02-14T17:01:45;14.43;;;9.75;;
63087;SDS011;49173;43.164;27.786;2023-02-14T17:04:11;15.80;;;10.57;;
63087;SDS011;49173;43.164;27.786;2023-02-14T17:06:38;19.65;;;12.68;;
63087;SDS011;49173;43.164;27.786;2023-02-14T17:09:11;24.17;;;15.35;;
63087;SDS011;49173;43.164;27.786;2023-02-14T17:11:45;27.52;;;16.92;;
63087;SDS011;49173;43.164;27.786;2023-02-14T17:14:18;29.15;;;17.60;;
63087;SDS011;49173;43.164;27.786;2023-02-14T17:16:55;35.30;;;21.50;;
63087;SDS011;49173;43.164;27.786;2023-02-14T17:19:26;35.65;;;21.63;;
63087;SDS011;49173;43.164;27.786;2023-02-14T17:21:52;34.03;;;21.42;;
63087;SDS011;49173;43.164;27.786;2023-02-14T17:24:29;31.33;;;19.50;;
63087;SDS011;49173;43.164;27.786;2023-02-14T17:26:58;22.63;;;15.60;;
63087;SDS011;49173;43.164;27.786;2023-02-14T17:29:26;20.02;;;13.48;;
63087;SDS011;49173;43.164;27.786;2023-02-14T17:31:53;22.58;;;15.65;;
63087;SDS011;49173;43.164;27.786;2023-02-14T17:34:21;19.50;;;14.05;;